Terminal Aerodrome Forecast
Issued by NWS Grand Forks, ND

Home | Current Version | Previous Version | Text Only | Print | Product List | Glossary On
Versions: 1 2 3 4 5 6 7 8 9 10 11 12 13 14 15 16 17 18
738
FTUS43 KFGF 052339
TAFGFK
TAF
KGFK 052339Z 0600/0624 21007KT P6SM SCT150
     FM060800 22006KT P6SM BKN250
     FM061400 18011KT P6SM BKN100
     FM062000 20015G25KT P6SM BKN100=

USA.gov is the U.S. government's official web portal to all federal, state and local government web resources and services.